Eola, Illinois
Current Conditions -  °F | °C
As of 11:52 PM on Thursday 30 Oct 2014 (Local Time) from KDPA Reporting Station
Overcast Overcast  
Wind Chill: 42°   Ceiling: 5000
Heat Index: 45°   Visibility: 10mi
Dew Point: 37°   Wind: 6mph
Humidity: 74%   Direction: 270°W
Pressure: 30.04"   Gusts: NA
Location:  41.78°N, 88.24°W
Report Text: KDPA 310452Z 27005KT 10SM BKN050 OVC110 07/03 A3004 RMK AO2 SLP175 T00720028
Loading
Personal Weather Stations






























Interactive Weather Map
Tropical Storm Tracking
New forecast layout! Learn more

10-Day Weather Forecast

Advertisements
Track Severe Weather on mobile